createdAt,value
2023-05-12T00:00:37.496Z,1826.00
2023-05-12T00:01:37.501Z,1842.00
2023-05-12T00:02:37.585Z,1844.00
2023-05-12T00:03:37.737Z,1850.00
2023-05-12T00:04:37.594Z,1847.00
2023-05-12T00:05:37.669Z,1836.00
2023-05-12T00:06:37.666Z,1840.00
2023-05-12T00:07:37.685Z,1840.00
2023-05-12T00:08:37.733Z,1840.00
2023-05-12T00:09:37.794Z,1848.00
2023-05-12T00:10:37.845Z,1844.00
2023-05-12T00:11:37.843Z,1822.00
2023-05-12T00:12:37.893Z,1821.00
2023-05-12T00:13:37.975Z,1839.00
2023-05-12T00:14:37.924Z,1801.00
2023-05-12T00:15:37.998Z,1799.00
2023-05-12T00:16:38.153Z,1816.00
2023-05-12T00:17:38.070Z,1812.00
2023-05-12T00:18:38.099Z,1810.00
2023-05-12T00:19:38.252Z,1828.00
2023-05-12T00:20:38.152Z,1813.00
2023-05-12T00:21:38.235Z,1803.00
2023-05-12T00:22:38.274Z,1800.00
2023-05-12T00:23:38.317Z,1805.00
2023-05-12T00:24:38.364Z,1792.00
2023-05-12T00:25:38.399Z,1786.00
2023-05-12T00:26:38.442Z,1780.00
2023-05-12T00:27:38.478Z,1783.00
2023-05-12T00:28:38.483Z,1791.00
2023-05-12T00:29:38.538Z,1786.00
2023-05-12T00:30:38.581Z,1769.00
2023-05-12T00:31:38.676Z,1796.00
2023-05-12T00:32:38.686Z,1787.00
2023-05-12T00:33:38.668Z,1787.00
2023-05-12T00:34:38.717Z,1804.00
2023-05-12T00:35:38.744Z,1828.00
2023-05-12T00:36:38.782Z,1836.00
2023-05-12T00:37:38.824Z,1831.00
2023-05-12T00:38:38.858Z,1839.00
2023-05-12T00:39:38.893Z,1835.00
2023-05-12T00:40:38.930Z,1834.00
2023-05-12T00:41:38.932Z,1836.00
2023-05-12T00:42:38.960Z,1856.00
2023-05-12T00:43:39.007Z,1857.00
2023-05-12T00:44:39.013Z,1849.00
2023-05-12T00:45:39.107Z,1842.00
2023-05-12T00:46:39.079Z,1848.00
2023-05-12T00:47:39.126Z,1842.00
2023-05-12T00:48:39.145Z,1845.00
2023-05-12T00:49:39.205Z,1846.00
2023-05-12T00:50:39.236Z,1854.00
2023-05-12T00:51:39.308Z,1844.00
2023-05-12T00:52:39.323Z,1860.00
2023-05-12T00:53:49.147Z,1841.00
2023-05-12T00:54:40.357Z,1842.00
2023-05-12T00:55:39.337Z,1843.00
2023-05-12T00:56:39.446Z,1843.00
2023-05-12T00:57:39.312Z,1850.00
2023-05-12T00:58:39.323Z,1856.00
2023-05-12T00:59:39.306Z,1859.00
2023-05-12T01:00:39.341Z,1841.00
2023-05-12T01:01:39.406Z,1852.00
2023-05-12T01:02:39.410Z,1835.00
2023-05-12T01:03:39.309Z,1830.00
2023-05-12T01:04:39.333Z,1812.00
2023-05-12T01:05:39.298Z,1831.00
2023-05-12T01:06:39.275Z,1832.00
2023-05-12T01:07:39.345Z,1814.00
2023-05-12T01:08:39.364Z,1823.00
2023-05-12T01:09:39.392Z,1816.00
2023-05-12T01:10:39.442Z,1817.00
2023-05-12T01:11:39.505Z,1845.00
2023-05-12T01:12:39.553Z,1822.00
2023-05-12T01:13:39.565Z,1834.00
2023-05-12T01:14:39.624Z,1818.00
2023-05-12T01:15:39.671Z,1824.00
2023-05-12T01:16:39.726Z,1814.00
2023-05-12T01:17:39.874Z,1813.00
2023-05-12T01:18:39.803Z,1811.00
2023-05-12T01:19:39.826Z,1810.00
2023-05-12T01:20:39.855Z,1814.00
2023-05-12T01:21:39.888Z,1818.00
2023-05-12T01:22:40.142Z,1808.00
2023-05-12T01:23:40.004Z,1810.00
2023-05-12T01:24:40.054Z,1826.00
2023-05-12T01:25:40.229Z,1829.00
2023-05-12T01:26:40.113Z,1826.00
2023-05-12T01:27:40.193Z,1834.00
2023-05-12T01:28:40.180Z,1840.00
2023-05-12T01:29:40.240Z,1842.00
2023-05-12T01:30:40.247Z,1831.00
2023-05-12T01:31:40.398Z,1840.00
2023-05-12T01:32:40.339Z,1850.00
2023-05-12T01:33:40.329Z,1852.00
2023-05-12T01:34:40.327Z,1832.00
2023-05-12T01:35:40.393Z,1837.00
2023-05-12T01:36:40.423Z,1852.00
2023-05-12T01:37:40.473Z,1872.00
2023-05-12T01:38:40.507Z,1860.00
2023-05-12T01:39:40.495Z,1845.00
2023-05-12T01:40:40.485Z,1843.00
2023-05-12T01:41:40.530Z,1833.00
2023-05-12T01:42:40.581Z,1847.00
2023-05-12T01:43:40.585Z,1852.00
2023-05-12T01:44:40.634Z,1850.00
2023-05-12T01:45:40.654Z,1856.00
2023-05-12T01:46:40.738Z,1835.00
2023-05-12T01:47:40.751Z,1848.00
2023-05-12T01:48:40.767Z,1855.00
2023-05-12T01:49:40.806Z,1855.00
2023-05-12T01:50:40.846Z,1858.00
2023-05-12T01:51:40.880Z,1857.00
2023-05-12T01:52:40.914Z,1842.00
2023-05-12T01:53:40.947Z,1864.00
2023-05-12T01:54:41.000Z,1866.00
2023-05-12T01:55:41.157Z,1859.00
2023-05-12T01:56:41.078Z,1858.00
2023-05-12T01:57:41.262Z,1878.00
2023-05-12T01:58:41.217Z,1854.00
2023-05-12T01:59:41.160Z,1854.00
2023-05-12T02:00:41.189Z,1865.00
2023-05-12T02:01:41.291Z,1856.00
2023-05-12T02:02:42.880Z,1857.00
2023-05-12T02:03:41.440Z,1849.00
2023-05-12T02:04:41.332Z,1846.00
2023-05-12T02:05:41.400Z,1836.00
2023-05-12T02:06:41.443Z,1830.00
2023-05-12T02:07:41.485Z,1804.00
2023-05-12T02:08:41.506Z,1805.00
2023-05-12T02:09:41.538Z,1786.00
2023-05-12T02:10:41.588Z,1766.00
2023-05-12T02:11:41.642Z,1755.00
2023-05-12T02:12:41.685Z,1743.00
2023-05-12T02:13:41.709Z,1725.00
2023-05-12T02:14:41.754Z,1721.00
2023-05-12T02:15:41.808Z,1718.00
2023-05-12T02:16:41.954Z,1709.00
2023-05-12T02:17:41.865Z,1698.00
2023-05-12T02:18:41.910Z,1681.00
2023-05-12T02:19:41.917Z,1703.00
2023-05-12T02:20:41.942Z,1704.00
2023-05-12T02:21:41.996Z,1676.00
2023-05-12T02:22:42.016Z,1674.00
2023-05-12T02:23:42.052Z,1666.00
2023-05-12T02:24:42.088Z,1644.00
2023-05-12T02:25:42.149Z,1641.00
2023-05-12T02:26:42.182Z,1626.00
2023-05-12T02:27:42.297Z,1609.00
2023-05-12T02:28:42.244Z,1602.00
2023-05-12T02:29:42.314Z,1594.00
2023-05-12T02:30:42.337Z,1588.00
2023-05-12T02:31:42.603Z,1579.00
2023-05-12T02:32:42.426Z,1601.00
2023-05-12T02:33:42.460Z,1575.00
2023-05-12T02:34:42.457Z,1572.00
2023-05-12T02:35:42.463Z,1572.00
2023-05-12T02:36:42.519Z,1560.00
2023-05-12T02:37:42.532Z,1547.00
2023-05-12T02:38:42.558Z,1558.00
2023-05-12T02:39:42.618Z,1539.00
2023-05-12T02:40:42.643Z,1542.00
2023-05-12T02:41:42.654Z,1530.00
2023-05-12T02:42:42.710Z,1527.00
2023-05-12T02:43:42.744Z,1525.00
2023-05-12T02:44:42.773Z,1512.00
2023-05-12T02:45:42.869Z,1520.00
2023-05-12T02:46:42.848Z,1495.00
2023-05-12T02:47:42.940Z,1492.00
2023-05-12T02:48:42.953Z,1480.00
2023-05-12T02:49:42.947Z,1490.00
2023-05-12T02:50:42.970Z,1458.00
2023-05-12T02:51:42.993Z,1458.00
2023-05-12T02:52:43.025Z,1440.00
2023-05-12T02:53:43.136Z,1431.00
2023-05-12T02:54:43.124Z,1441.00
2023-05-12T02:55:43.165Z,1439.00
2023-05-12T02:56:43.199Z,1428.00
2023-05-12T02:57:43.221Z,1426.00
2023-05-12T02:58:43.271Z,1414.00
2023-05-12T02:59:43.350Z,1429.00
2023-05-12T03:00:43.351Z,1420.00
2023-05-12T03:01:43.459Z,1417.00
2023-05-12T03:02:43.609Z,1404.00
2023-05-12T03:03:43.644Z,1418.00
2023-05-12T03:04:43.495Z,1409.00
2023-05-12T03:05:43.542Z,1401.00
2023-05-12T03:06:43.601Z,1395.00
2023-05-12T03:07:43.655Z,1393.00
2023-05-12T03:08:43.644Z,1394.00
2023-05-12T03:09:43.673Z,1391.00
2023-05-12T03:10:43.707Z,1391.00
2023-05-12T03:11:43.753Z,1406.00
2023-05-12T03:12:43.801Z,1369.00
2023-05-12T03:13:43.857Z,1374.00
2023-05-12T03:14:43.865Z,1374.00
2023-05-12T03:15:43.940Z,1358.00
2023-05-12T03:16:43.996Z,1372.00
2023-05-12T03:17:44.004Z,1364.00
2023-05-12T03:18:44.019Z,1373.00
2023-05-12T03:19:44.003Z,1367.00
2023-05-12T03:20:44.100Z,1346.00
2023-05-12T03:21:44.088Z,1365.00
2023-05-12T03:22:44.119Z,1352.00
2023-05-12T03:23:44.147Z,1353.00
2023-05-12T03:24:44.169Z,1342.00
2023-05-12T03:25:44.184Z,1342.00
2023-05-12T03:26:44.220Z,1344.00
2023-05-12T03:27:44.283Z,1345.00
2023-05-12T03:28:44.244Z,1338.00
2023-05-12T03:29:44.302Z,1339.00
2023-05-12T03:30:44.365Z,1342.00
2023-05-12T03:31:44.519Z,1333.00
2023-05-12T03:32:44.480Z,1356.00
2023-05-12T03:33:44.456Z,1355.00
2023-05-12T03:34:44.476Z,1346.00
2023-05-12T03:35:44.512Z,1326.00
2023-05-12T03:36:44.563Z,1303.00
2023-05-12T03:37:44.602Z,1328.00
2023-05-12T03:38:44.669Z,1343.00
2023-05-12T03:39:44.713Z,1338.00
2023-05-12T03:40:44.714Z,1331.00
2023-05-12T03:41:44.750Z,1337.00
2023-05-12T03:42:44.810Z,1339.00
2023-05-12T03:43:44.843Z,1352.00
2023-05-12T03:44:45.062Z,1327.00
2023-05-12T03:45:44.918Z,1321.00
2023-05-12T03:46:45.077Z,1327.00
2023-05-12T03:47:45.227Z,1325.00
2023-05-12T03:48:45.082Z,1331.00
2023-05-12T03:49:45.115Z,1335.00
2023-05-12T03:50:45.144Z,1339.00
2023-05-12T03:51:45.182Z,1332.00
2023-05-12T03:52:45.208Z,1339.00
2023-05-12T03:53:45.284Z,1348.00
2023-05-12T03:54:45.295Z,1339.00
2023-05-12T03:55:45.316Z,1335.00
2023-05-12T03:56:45.380Z,1333.00
2023-05-12T03:57:45.407Z,1316.00
2023-05-12T03:58:45.469Z,1329.00
2023-05-12T03:59:45.474Z,1329.00
2023-05-12T04:00:45.519Z,1333.00
2023-05-12T04:01:45.604Z,1337.00
2023-05-12T04:02:45.773Z,1339.00
2023-05-12T04:03:45.758Z,1338.00
2023-05-12T04:04:45.723Z,1342.00
2023-05-12T04:05:45.755Z,1353.00
2023-05-12T04:06:45.758Z,1368.00
2023-05-12T04:07:45.793Z,1362.00
2023-05-12T04:08:45.842Z,1380.00
2023-05-12T04:09:45.902Z,1378.00
2023-05-12T04:10:45.954Z,1387.00
2023-05-12T04:11:46.047Z,1393.00
2023-05-12T04:12:46.065Z,1372.00
2023-05-12T04:13:46.049Z,1364.00
2023-05-12T04:14:46.114Z,1391.00
2023-05-12T04:15:46.122Z,1399.00
2023-05-12T04:16:46.302Z,1394.00
2023-05-12T04:17:46.316Z,1411.00
2023-05-12T04:18:46.315Z,1405.00
2023-05-12T04:19:46.328Z,1407.00
2023-05-12T04:20:46.333Z,1431.00
2023-05-12T04:21:46.391Z,1421.00
2023-05-12T04:22:46.436Z,1409.00
2023-05-12T04:23:46.523Z,1425.00
2023-05-12T04:24:46.505Z,1441.00
2023-05-12T04:25:46.570Z,1443.00
2023-05-12T04:26:46.603Z,1428.00
2023-05-12T04:27:46.649Z,1448.00
2023-05-12T04:28:46.720Z,1443.00
2023-05-12T04:29:46.741Z,1454.00
2023-05-12T04:30:46.769Z,1462.00
2023-05-12T04:31:46.860Z,1472.00
2023-05-12T04:32:46.934Z,1463.00
2023-05-12T04:33:48.319Z,1473.00
2023-05-12T04:34:46.919Z,1469.00
2023-05-12T04:35:46.961Z,1465.00
2023-05-12T04:36:46.995Z,1472.00
2023-05-12T04:37:47.060Z,1475.00
2023-05-12T04:38:47.095Z,1476.00
2023-05-12T04:39:47.125Z,1476.00
2023-05-12T04:40:47.159Z,1490.00
2023-05-12T04:41:47.217Z,1474.00
2023-05-12T04:42:47.272Z,1471.00
2023-05-12T04:44:47.351Z,1471.00
2023-05-12T04:45:47.349Z,1482.00
2023-05-12T04:46:47.326Z,1482.00
2023-05-12T04:47:47.317Z,1467.00
2023-05-12T04:48:47.365Z,1484.00
2023-05-12T04:49:47.292Z,1461.00
2023-05-12T04:50:47.290Z,1480.00
2023-05-12T04:51:47.290Z,1486.00
2023-05-12T04:52:47.278Z,1472.00
2023-05-12T04:53:47.270Z,1492.00
2023-05-12T04:54:47.251Z,1502.00
2023-05-12T04:55:47.246Z,1506.00
2023-05-12T04:56:47.237Z,1498.00
2023-05-12T04:57:47.221Z,1506.00
2023-05-12T04:58:47.205Z,1509.00
2023-05-12T04:59:47.216Z,1512.00
2023-05-12T05:00:47.204Z,1493.00
2023-05-12T05:01:47.350Z,1509.00
2023-05-12T05:02:47.321Z,1519.00
2023-05-12T05:03:47.278Z,1509.00
2023-05-12T05:04:47.177Z,1515.00
2023-05-12T05:05:47.167Z,1517.00
2023-05-12T05:06:47.163Z,1527.00
2023-05-12T05:07:47.153Z,1542.00
2023-05-12T05:08:47.157Z,1542.00
2023-05-12T05:09:47.136Z,1535.00
2023-05-12T05:10:47.138Z,1532.00
2023-05-12T05:11:47.156Z,1521.00
2023-05-12T05:12:47.124Z,1515.00
2023-05-12T05:13:47.130Z,1517.00
2023-05-12T05:14:47.119Z,1514.00
2023-05-12T05:15:47.126Z,1519.00
2023-05-12T05:16:47.085Z,1545.00
2023-05-12T05:17:47.131Z,1526.00
2023-05-12T05:18:47.128Z,1532.00
2023-05-12T05:19:55.954Z,1525.00
2023-05-12T05:20:57.241Z,1527.00
2023-05-12T05:21:48.051Z,1527.00
2023-05-12T05:22:47.045Z,1533.00
2023-05-12T05:23:47.052Z,1540.00
2023-05-12T05:24:47.050Z,1532.00
2023-05-12T05:25:47.050Z,1527.00
2023-05-12T05:26:47.029Z,1548.00
2023-05-12T05:27:47.266Z,1527.00
2023-05-12T05:28:47.011Z,1531.00
2023-05-12T05:29:47.014Z,1607.00
2023-05-12T05:30:47.024Z,1669.00
2023-05-12T05:31:47.076Z,1764.00
2023-05-12T05:32:47.369Z,1840.00
2023-05-12T05:33:46.983Z,1870.00
2023-05-12T05:34:46.971Z,1943.00
2023-05-12T05:35:46.963Z,2009.00
2023-05-12T05:36:46.944Z,2046.00
2023-05-12T05:37:46.943Z,2088.00
2023-05-12T05:38:46.938Z,2149.00
2023-05-12T05:39:46.940Z,2196.00
2023-05-12T05:40:53.607Z,2281.00
2023-05-12T05:41:47.910Z,2283.00
2023-05-12T05:42:46.939Z,2295.00
2023-05-12T05:43:46.918Z,2326.00
2023-05-12T05:44:46.917Z,2388.00
2023-05-12T05:45:46.881Z,2488.00
2023-05-12T05:46:46.886Z,2520.00
2023-05-12T05:47:47.307Z,2521.00
2023-05-12T05:48:46.874Z,2502.00
2023-05-12T05:49:46.863Z,2517.00
2023-05-12T05:50:47.006Z,2408.00
2023-05-12T05:51:46.865Z,2306.00
2023-05-12T05:52:46.876Z,2331.00
2023-05-12T05:53:46.869Z,2364.00
2023-05-12T05:54:46.828Z,2391.00
2023-05-12T05:55:46.890Z,2419.00
2023-05-12T05:56:46.877Z,2411.00
2023-05-12T05:57:46.930Z,2455.00
2023-05-12T05:58:46.917Z,2486.00
2023-05-12T05:59:46.988Z,2525.00
2023-05-12T06:00:47.040Z,2549.00
2023-05-12T06:01:47.119Z,2586.00
2023-05-12T06:02:47.216Z,2633.00
2023-05-12T06:03:47.221Z,2643.00
2023-05-12T06:04:47.229Z,2703.00
2023-05-12T06:05:47.260Z,2717.00
2023-05-12T06:06:47.243Z,2741.00
2023-05-12T06:07:47.473Z,2750.00
2023-05-12T06:08:47.297Z,2692.00
2023-05-12T06:09:47.521Z,2638.00
2023-05-12T06:10:47.363Z,2642.00
2023-05-12T06:11:47.415Z,2544.00
2023-05-12T06:12:47.436Z,2557.00
2023-05-12T06:13:47.495Z,2430.00
2023-05-12T06:14:47.517Z,2477.00
2023-05-12T06:15:47.537Z,2394.00
2023-05-12T06:16:47.680Z,2224.00
2023-05-12T06:17:47.665Z,2323.00
2023-05-12T06:18:47.736Z,2306.00
2023-05-12T06:19:47.737Z,2376.00
2023-05-12T06:20:47.775Z,2347.00
2023-05-12T06:21:47.831Z,2342.00
2023-05-12T06:22:47.893Z,2359.00
2023-05-12T06:23:47.947Z,2268.00
2023-05-12T06:24:47.936Z,2275.00
2023-05-12T06:25:47.955Z,2385.00
2023-05-12T06:26:47.996Z,2429.00
2023-05-12T06:27:48.090Z,2455.00
2023-05-12T06:28:48.081Z,2499.00
2023-05-12T06:29:48.096Z,2519.00
2023-05-12T06:30:48.109Z,2532.00
2023-05-12T06:31:48.169Z,2535.00
2023-05-12T06:32:48.452Z,2504.00
2023-05-12T06:33:48.219Z,2506.00
2023-05-12T06:34:48.254Z,2530.00
2023-05-12T06:35:48.277Z,2547.00
2023-05-12T06:36:48.303Z,2521.00
2023-05-12T06:37:48.536Z,2505.00
2023-05-12T06:38:48.409Z,2482.00
2023-05-12T06:39:48.442Z,2443.00
2023-05-12T06:40:48.446Z,2441.00
2023-05-12T06:41:48.490Z,2449.00
2023-05-12T06:42:48.528Z,2450.00
2023-05-12T06:43:48.548Z,2484.00
2023-05-12T06:44:48.599Z,2471.00
2023-05-12T06:45:48.664Z,2118.00
2023-05-12T06:46:48.707Z,2012.00
2023-05-12T06:47:48.817Z,2073.00
2023-05-12T06:48:48.717Z,2153.00
2023-05-12T06:49:48.737Z,2254.00
2023-05-12T06:50:48.765Z,2312.00
2023-05-12T06:51:48.776Z,2374.00
2023-05-12T06:52:48.820Z,2388.00
2023-05-12T06:53:48.814Z,2430.00
2023-05-12T06:54:48.858Z,2462.00
2023-05-12T06:55:48.884Z,2491.00
2023-05-12T06:56:48.949Z,2503.00
2023-05-12T06:57:49.306Z,2532.00
2023-05-12T06:58:49.015Z,2536.00
2023-05-12T06:59:49.029Z,2561.00
2023-05-12T07:00:49.040Z,2562.00
2023-05-12T07:01:49.085Z,2579.00
2023-05-12T07:02:49.132Z,2590.00
2023-05-12T07:03:49.145Z,2605.00
2023-05-12T07:04:49.155Z,2632.00
2023-05-12T07:05:49.249Z,2645.00
2023-05-12T07:06:49.252Z,2657.00
2023-05-12T07:07:49.272Z,2683.00
2023-05-12T07:08:49.307Z,2706.00
2023-05-12T07:09:49.324Z,2736.00
2023-05-12T07:10:49.387Z,2768.00
2023-05-12T07:11:50.217Z,2867.00
2023-05-12T07:12:49.442Z,2998.00
2023-05-12T07:13:49.460Z,3026.00
2023-05-12T07:14:49.510Z,3004.00
2023-05-12T07:15:49.897Z,3013.00
2023-05-12T07:16:49.589Z,2994.00
2023-05-12T07:17:49.897Z,2977.00
2023-05-12T07:18:49.702Z,2970.00
2023-05-12T07:19:49.689Z,2944.00
2023-05-12T07:20:49.745Z,2933.00
2023-05-12T07:21:49.791Z,2906.00
2023-05-12T07:22:49.834Z,2830.00
2023-05-12T07:23:49.858Z,2807.00
2023-05-12T07:24:49.887Z,2795.00
2023-05-12T07:25:49.910Z,2779.00
2023-05-12T07:26:49.943Z,2774.00
2023-05-12T07:27:50.007Z,2732.00
2023-05-12T07:28:49.953Z,2685.00
2023-05-12T07:29:49.986Z,2633.00
2023-05-12T07:30:49.992Z,2565.00
2023-05-12T07:31:50.142Z,2413.00
2023-05-12T07:32:50.094Z,2268.00
2023-05-12T07:33:50.117Z,2202.00
2023-05-12T07:34:50.179Z,2242.00
2023-05-12T07:35:50.195Z,2341.00
2023-05-12T07:36:50.233Z,2383.00
2023-05-12T07:37:50.280Z,2406.00
2023-05-12T07:38:50.310Z,2409.00
2023-05-12T07:39:50.332Z,2415.00
2023-05-12T07:40:50.341Z,2409.00
2023-05-12T07:41:50.354Z,2426.00
2023-05-12T07:42:50.854Z,2440.00
2023-05-12T07:43:50.452Z,2457.00
2023-05-12T07:44:50.532Z,2485.00
2023-05-12T07:45:50.555Z,2513.00
2023-05-12T07:46:50.630Z,2557.00
2023-05-12T07:47:50.914Z,2590.00
2023-05-12T07:48:50.690Z,2587.00
2023-05-12T07:49:50.743Z,2608.00
2023-05-12T07:50:50.741Z,2625.00
2023-05-12T07:51:50.762Z,2626.00
2023-05-12T07:52:50.845Z,2630.00
2023-05-12T07:53:50.889Z,2647.00
2023-05-12T07:54:50.885Z,2657.00
2023-05-12T07:55:50.950Z,2650.00
2023-05-12T07:56:51.004Z,2549.00
2023-05-12T07:57:51.412Z,2578.00
2023-05-12T07:58:51.384Z,2515.00
2023-05-12T07:59:51.102Z,2439.00
2023-05-12T08:00:51.143Z,2402.00
2023-05-12T08:01:51.196Z,2339.00
2023-05-12T08:02:51.711Z,2247.00
2023-05-12T08:03:51.606Z,2065.00
2023-05-12T08:04:51.326Z,2120.00
2023-05-12T08:05:51.418Z,1952.00
2023-05-12T08:06:51.394Z,1980.00
2023-05-12T08:07:51.485Z,1958.00
2023-05-12T08:08:51.495Z,1916.00
2023-05-12T08:09:51.516Z,1833.00
2023-05-12T08:10:51.587Z,1881.00
2023-05-12T08:11:51.971Z,1890.00
2023-05-12T08:12:51.619Z,1810.00
2023-05-12T08:13:51.629Z,1563.00
2023-05-12T08:14:51.654Z,1530.00
2023-05-12T08:15:51.678Z,1502.00
2023-05-12T08:16:51.707Z,1467.00
2023-05-12T08:17:51.736Z,1440.00
2023-05-12T08:18:51.755Z,1433.00
2023-05-12T08:19:51.774Z,1576.00
2023-05-12T08:20:51.705Z,1578.00
2023-05-12T08:21:51.733Z,1477.00
2023-05-12T08:22:51.716Z,1472.00
2023-05-12T08:23:51.870Z,1570.00
2023-05-12T08:24:51.784Z,1530.00
2023-05-12T08:25:51.832Z,1424.00
2023-05-12T08:26:51.883Z,1440.00
2023-05-12T08:27:51.907Z,1520.00
2023-05-12T08:28:51.964Z,1574.00
2023-05-12T08:29:51.985Z,1401.00
2023-05-12T08:30:52.084Z,1139.00
2023-05-12T08:31:52.016Z,985.00
2023-05-12T08:32:52.131Z,1133.00
2023-05-12T08:34:09.215Z,1320.00
2023-05-12T08:34:53.061Z,1324.00
2023-05-12T08:35:52.120Z,1350.00
2023-05-12T08:36:52.033Z,1390.00
2023-05-12T08:37:52.038Z,1243.00
2023-05-12T08:38:52.016Z,1152.00
2023-05-12T08:39:52.008Z,1162.00
2023-05-12T08:40:52.038Z,1166.00
2023-05-12T08:41:52.079Z,1220.00
2023-05-12T08:42:52.105Z,1256.00
2023-05-12T08:43:52.352Z,1271.00
2023-05-12T08:44:52.169Z,975.00
2023-05-12T08:45:52.234Z,676.00
2023-05-12T08:46:52.391Z,592.00
2023-05-12T08:47:52.297Z,522.00
2023-05-12T08:48:52.311Z,495.00
2023-05-12T08:49:52.598Z,475.00
2023-05-12T08:50:52.352Z,490.00
2023-05-12T08:51:57.736Z,500.00
2023-05-12T08:52:53.389Z,477.00
2023-05-12T08:53:52.361Z,454.00
2023-05-12T08:54:56.042Z,414.00
2023-05-12T08:57:09.135Z,400.00
2023-05-12T08:57:52.355Z,400.00
2023-05-12T08:58:52.385Z,400.00
2023-05-12T08:59:52.312Z,400.00
2023-05-12T09:00:52.455Z,400.00
2023-05-12T09:01:52.594Z,400.00
2023-05-12T09:02:54.578Z,400.00
2023-05-12T09:03:52.942Z,400.00
2023-05-12T09:04:52.663Z,400.00
2023-05-12T09:05:52.624Z,400.00
2023-05-12T09:06:55.522Z,400.00
2023-05-12T09:07:52.648Z,400.00
2023-05-12T09:08:52.887Z,430.00
2023-05-12T09:09:52.671Z,502.00
2023-05-12T09:10:52.613Z,515.00
2023-05-12T09:11:52.613Z,530.00
2023-05-12T09:12:52.624Z,533.00
2023-05-12T09:13:52.860Z,551.00
2023-05-12T09:14:52.615Z,590.00
2023-05-12T09:15:52.651Z,596.00
2023-05-12T09:16:52.649Z,615.00
2023-05-12T09:17:52.665Z,637.00
2023-05-12T09:18:52.761Z,613.00
2023-05-12T09:19:52.572Z,587.00
2023-05-12T09:20:52.565Z,602.00
2023-05-12T09:21:52.562Z,600.00
2023-05-12T09:22:52.576Z,643.00
2023-05-12T09:23:52.955Z,655.00
2023-05-12T09:24:52.548Z,735.00
2023-05-12T09:25:52.525Z,741.00
2023-05-12T09:26:52.569Z,794.00
2023-05-12T09:27:52.507Z,901.00
2023-05-12T09:28:52.505Z,1053.00
2023-05-12T09:30:52.517Z,1209.00
2023-05-12T09:31:52.519Z,1246.00
2023-05-12T09:32:52.493Z,1352.00
2023-05-12T09:33:52.865Z,1554.00
2023-05-12T09:34:52.466Z,1877.00
2023-05-12T09:35:52.480Z,1981.00
2023-05-12T09:36:52.450Z,2036.00
2023-05-12T09:37:52.451Z,2045.00
2023-05-12T09:38:52.882Z,2005.00
2023-05-12T09:39:52.545Z,2038.00
2023-05-12T09:40:52.436Z,2047.00
2023-05-12T09:41:52.415Z,1961.00
2023-05-12T09:42:52.433Z,1916.00
2023-05-12T09:43:52.872Z,1747.00
2023-05-12T09:44:52.417Z,1720.00
2023-05-12T09:45:52.451Z,1755.00
2023-05-12T09:46:52.392Z,1848.00
2023-05-12T09:47:52.412Z,1926.00
2023-05-12T09:48:52.878Z,1965.00
2023-05-12T09:49:52.395Z,2002.00
2023-05-12T09:50:52.409Z,2124.00
2023-05-12T09:51:52.366Z,2085.00
2023-05-12T09:52:52.337Z,1975.00
2023-05-12T09:53:52.397Z,1944.00
2023-05-12T09:54:52.336Z,1982.00
2023-05-12T09:55:52.340Z,1543.00
2023-05-12T09:56:52.295Z,1456.00
2023-05-12T09:57:52.292Z,1502.00
2023-05-12T09:58:52.287Z,1437.00
2023-05-12T09:59:52.332Z,1363.00
2023-05-12T10:01:17.891Z,1446.00
2023-05-12T10:01:53.299Z,1447.00
2023-05-12T10:02:52.368Z,1362.00
2023-05-12T10:03:52.255Z,1204.00
2023-05-12T10:04:52.332Z,1281.00
2023-05-12T10:05:52.248Z,1332.00
2023-05-12T10:06:52.227Z,1468.00
2023-05-12T10:07:52.236Z,1495.00
2023-05-12T10:08:52.389Z,1584.00
2023-05-12T10:09:52.221Z,1606.00
2023-05-12T10:10:52.240Z,1784.00
2023-05-12T10:11:54.011Z,1776.00
2023-05-12T10:12:52.216Z,1711.00
2023-05-12T10:13:52.442Z,1781.00
2023-05-12T10:14:52.371Z,1682.00
2023-05-12T10:15:52.365Z,1376.00
2023-05-12T10:16:52.396Z,1217.00
2023-05-12T10:17:54.023Z,1238.00
2023-05-12T10:18:52.513Z,1377.00
2023-05-12T10:19:52.541Z,1468.00
2023-05-12T10:20:52.557Z,1614.00
2023-05-12T10:21:52.594Z,1618.00
2023-05-12T10:22:52.632Z,1778.00
2023-05-12T10:23:52.878Z,1692.00
2023-05-12T10:24:52.699Z,1701.00
2023-05-12T10:25:52.721Z,1676.00
2023-05-12T10:26:52.778Z,1675.00
2023-05-12T10:27:52.839Z,1806.00
2023-05-12T10:28:52.887Z,1967.00
2023-05-12T10:29:53.609Z,2107.00
2023-05-12T10:30:52.943Z,2241.00
2023-05-12T10:31:53.108Z,2291.00
2023-05-12T10:32:53.074Z,2378.00
2023-05-12T10:33:53.034Z,2452.00
2023-05-12T10:34:53.100Z,2498.00
2023-05-12T10:35:53.091Z,2554.00
2023-05-12T10:36:53.108Z,2573.00
2023-05-12T10:37:53.114Z,2632.00
2023-05-12T10:38:53.186Z,2654.00
2023-05-12T10:39:53.237Z,2664.00
2023-05-12T10:40:53.306Z,2677.00
2023-05-12T10:41:53.313Z,2677.00
2023-05-12T10:42:53.363Z,2675.00
2023-05-12T10:43:53.421Z,2678.00
2023-05-12T10:44:53.412Z,2648.00
2023-05-12T10:45:53.433Z,2658.00
2023-05-12T10:46:53.484Z,2680.00
2023-05-12T10:47:53.573Z,2688.00
2023-05-12T10:48:53.684Z,2694.00
2023-05-12T10:49:53.659Z,2699.00
2023-05-12T10:50:53.656Z,2683.00
2023-05-12T10:51:53.689Z,2663.00
2023-05-12T10:52:53.803Z,2666.00
2023-05-12T10:53:54.846Z,2657.00
2023-05-12T10:54:53.796Z,2662.00
2023-05-12T10:55:53.949Z,2669.00
2023-05-12T10:56:54.076Z,2665.00
2023-05-12T10:57:54.169Z,2671.00
2023-05-12T10:58:54.203Z,2682.00
2023-05-12T10:59:54.416Z,2658.00
2023-05-12T11:00:55.212Z,2666.00
2023-05-12T11:01:54.383Z,2669.00
2023-05-12T11:02:54.536Z,2675.00
2023-05-12T11:03:54.549Z,2689.00
2023-05-12T11:04:54.589Z,2681.00
2023-05-12T11:05:54.100Z,2659.00
2023-05-12T11:06:54.564Z,2642.00
2023-05-12T11:07:54.677Z,2637.00
2023-05-12T11:08:55.160Z,2600.00
2023-05-12T11:09:58.425Z,2575.00
2023-05-12T11:10:55.057Z,2436.00
2023-05-12T11:11:54.293Z,2246.00
2023-05-12T11:12:53.961Z,2177.00
2023-05-12T11:13:53.969Z,2054.00
2023-05-12T11:14:54.425Z,2201.00
2023-05-12T11:15:54.005Z,2267.00
2023-05-12T11:16:53.973Z,2167.00
2023-05-12T11:17:53.978Z,2209.00
2023-05-12T11:18:54.081Z,2279.00
2023-05-12T11:19:54.416Z,2417.00
2023-05-12T11:20:53.909Z,2443.00
2023-05-12T11:21:53.957Z,2503.00
2023-05-12T11:22:53.918Z,2579.00
2023-05-12T11:23:53.920Z,2628.00
2023-05-12T11:24:54.494Z,2768.00
2023-05-12T11:25:54.040Z,3106.00
2023-05-12T11:26:54.029Z,3061.00
2023-05-12T11:27:54.058Z,3080.00
2023-05-12T11:28:54.127Z,3003.00
2023-05-12T11:29:54.133Z,2982.00
2023-05-12T11:30:55.451Z,3070.00
2023-05-12T11:31:54.246Z,3028.00
2023-05-12T11:32:54.282Z,3019.00
2023-05-12T11:34:08.241Z,3004.00
2023-05-12T11:34:55.289Z,3006.00
2023-05-12T11:35:54.267Z,3007.00
2023-05-12T11:36:54.259Z,3015.00
2023-05-12T11:37:54.290Z,3037.00
2023-05-12T11:38:54.230Z,3063.00
2023-05-12T11:39:54.222Z,3081.00
2023-05-12T11:40:54.243Z,3108.00
2023-05-12T11:42:02.139Z,3125.00
2023-05-12T11:42:55.212Z,3126.00
2023-05-12T11:43:54.210Z,3129.00
2023-05-12T11:44:54.205Z,3138.00
2023-05-12T11:45:54.194Z,3145.00
2023-05-12T11:46:54.199Z,3142.00
2023-05-12T11:47:54.256Z,3153.00
2023-05-12T11:48:54.169Z,3154.00
2023-05-12T11:49:54.167Z,3116.00
2023-05-12T11:50:54.191Z,3129.00
2023-05-12T11:51:54.145Z,3119.00
2023-05-12T11:52:54.146Z,3114.00
2023-05-12T11:53:54.119Z,3111.00
2023-05-12T11:54:54.123Z,3101.00
2023-05-12T11:55:54.177Z,3071.00
2023-05-12T11:56:54.130Z,3066.00
2023-05-12T11:57:54.124Z,3065.00
2023-05-12T11:58:54.125Z,3040.00
2023-05-12T11:59:54.195Z,3013.00
2023-05-12T12:00:54.234Z,2962.00
2023-05-12T12:01:54.226Z,2948.00
2023-05-12T12:02:54.412Z,2906.00
2023-05-12T12:03:54.407Z,2876.00
2023-05-12T12:04:54.439Z,2837.00
2023-05-12T12:05:54.349Z,2785.00
2023-05-12T12:06:54.396Z,2745.00
2023-05-12T12:07:54.396Z,2780.00
2023-05-12T12:08:54.401Z,2729.00
2023-05-12T12:09:54.442Z,2598.00
2023-05-12T12:10:54.445Z,2536.00